Huvudsida
METAR-TAF:

METAR-TAF

Flygplatser :

Gullfaks, Norge

latitud: 61-02N, longitud: 002-02E, höjd: 10 m

Aktuellt väderrapport

Denna rapport gjordes för 57 minuter sedan, klockan 19:50 UTC
Vind 11 kt från syd
Temperatur 10°C
Fuktighet 82%
Tryck 1030 hPa
Sikt 10 km eller mer
Inga moln under 1 500 m eller inga cumulonimbus

METAR: ENGC 291950Z 19011KT CAVOK 10/07 Q1030 W08/S3

Tid: 22:47 (20:47 UTC)

Väderprognos

Prognos gäller från 29 kl. 18 UTC till 30 kl. 18 UTC
Vind 12 kt från syd/sydost
Sikt 10 km eller mer
Spridda moln på en höjd av 3000 ft
Sannolikhet 30%
från 29 kl. 18 UTC till 29 kl. 24 UTC
Sikt: 4000 m
Brutna moln på en höjd av 500 ft
fuktdis

TAF: ENGC 2918/3018 16012KT 9999 SCT030 PROB30 2918/2924 4000 BR BKN005

Aktuella väderrapporter och prognoser från 4000 flygplatser (METAR- och TAF-rapporter).

De tillgängliga stationerna syns som gula och röda prickar på kartan.

För musen över prickarna för att se namnen på stationerna.

Klicka sedan för att få väderrapporter och prognoser.

För att ändra kartan: Klicka på de gröna knapparna med ett svart kors på för att zooma in; den gröna knappen med ett streck på för att zooma ut; eller på de gröna pilarna för angränsande kartor.


METAR-TAF: